Atlantic Hero — C6XD5 — position and weather

sailwx.info

Track history (hours):
 
Tides and Currents Weather Stations Pressure Air Temp Water Temp Dewpoint Dewpoint Depression Visibility Wind Speed Wind Dir Waves Ship Positions

Atlantic Hero

Last reported at 2017-Sep-16 23:14 UTC. Time now 2017-Sep-25 11:40 UTC.
Position N 49°41' W 004°54'.
Warning: this ship's position is 8 days out of date.

Length 225 m; draft 6.4 m.

Type: Cargo ship. MMSI: 311005500.

Date/timePositionNaut miles runAvg speedWind from/ knotsBaromVisibWave heightAir tempDewpointWater temp
2017-Sep-16 23:14N 49°41' W 004°54'313.2
2017-Sep-16 23:00N 49°42' W 004°50'813.3
2017-Sep-16 22:26N 49°43' W 004°38'813.5
2017-Sep-16 21:52N 49°45' W 004°26'613.6
2017-Sep-16 21:27N 49°46' W 004°18'613.9
2017-Sep-16 21:00N 49°48' W 004°09'713.9
2017-Sep-16 20:30N 49°50' W 003°58'713.9
2017-Sep-16 20:00N 49°51' W 003°48'713.7
2017-Sep-16 19:30N 49°53' W 003°37'713.3
2017-Sep-16 19:00N 49°54' W 003°27'612.9
2017-Sep-16 18:30N 49°56' W 003°18'612.6
2017-Sep-16 18:00N 49°57' W 003°08'612.0
2017-Sep-16 17:30N 49°59' W 002°59'611.7
2017-Sep-16 17:00N 50°00' W 002°50'611.5
2017-Sep-16 16:30N 50°02' W 002°42'9213.2
2017-Sep-16 09:30N 50°27' W 000°23'713.7
2017-Sep-16 09:00N 50°29' W 000°13'713.4
2017-Sep-16 08:30N 50°31' W 000°03'713.3
2017-Sep-16 08:00N 50°33' E 000°07'612.9
2017-Sep-16 07:30N 50°35' E 000°17'612.6
2017-Sep-16 07:00N 50°37' E 000°27'612.1
2017-Sep-16 06:30N 50°38' E 000°36'611.8
2017-Sep-16 06:00N 50°41' E 000°44'612.4
2017-Sep-16 05:30N 50°45' E 000°51'612.6
2017-Sep-16 05:00N 50°49' E 000°59'713.1
2017-Sep-16 04:30N 50°53' E 001°07'713.7
2017-Sep-16 04:00N 50°58' E 001°16'714.7
2017-Sep-16 03:30N 51°02' E 001°24'815.1
2017-Sep-16 03:00N 51°07' E 001°33'714.9
2017-Sep-16 02:30N 51°12' E 001°42'714.2
2017-Sep-16 02:01N 51°18' E 001°48'713.5
2017-Sep-16 01:30N 51°24' E 001°54'613.0
2017-Sep-16 01:01N 51°29' E 001°60'612.5
2017-Sep-16 00:31N 51°34' E 002°06'612.2
2017-Sep-16 00:00N 51°38' E 002°13'611.9
2017-Sep-15 23:30N 51°43' E 002°20'611.7
2017-Sep-15 22:59N 51°47' E 002°27'611.5
2017-Sep-15 22:29N 51°52' E 002°33'611.4
2017-Sep-15 22:00N 51°56' E 002°38'5912.4
2017-Sep-15 17:12N 52°43' E 003°38'313.5
2017-Sep-15 17:00N 52°45' E 003°41'713.6
2017-Sep-15 16:31N 52°50' E 003°48'713.6
2017-Sep-15 16:00N 52°55' E 003°55'713.2
2017-Sep-15 15:30N 52°60' E 004°03'612.9
2017-Sep-15 15:01N 53°04' E 004°12'712.5
2017-Sep-15 14:29N 53°08' E 004°20'612.1
2017-Sep-15 14:00N 53°13' E 004°25'1411.9
2017-Sep-15 12:49N 53°26' E 004°34'510.7
2017-Sep-15 12:22N 53°29' E 004°40'410.8
2017-Sep-15 12:00N 53°31' E 004°46'510.8
2017-Sep-15 11:30N 53°33' E 004°54'510.8
2017-Sep-15 11:00N 53°35' E 005°03'611.2
2017-Sep-15 10:30N 53°37' E 005°12'611.6
2017-Sep-15 10:00N 53°39' E 005°21'6712.4
2017-Sep-15 04:33N 53°57' E 007°11'011.8
2017-Sep-15 04:30N 53°57' E 007°11'611.5
2017-Sep-15 03:59N 53°59' E 007°21'711.3
2017-Sep-15 03:23N 54°00' E 007°33'411.0
2017-Sep-15 03:00N 54°01' E 007°39'510.5
2017-Sep-15 02:30N 54°01' E 007°48'510.7
2017-Sep-15 02:01N 54°01' E 007°57'810.4
2017-Sep-15 01:15N 54°01' E 008°11'2 9.3
2017-Sep-15 01:00N 54°00' E 008°15'2 4.6
2017-Sep-15 00:30N 54°00' E 008°19'612.1
2017-Sep-15 00:00N 53°59' E 008°28'613.0
2017-Sep-14 23:30N 53°57' E 008°39'713.3
2017-Sep-14 23:00N 53°51' E 008°45'714.6
2017-Sep-14 22:30N 53°51' E 008°58'713.5
2017-Sep-14 22:00N 53°53' E 009°09'611.9
2017-Sep-14 21:31N 53°51' E 009°18'713.2
2017-Sep-14 21:00N 53°46' E 009°24'612.0
2017-Sep-14 20:31N 53°41' E 009°30'611.1
2017-Sep-14 20:00N 53°36' E 009°35'510.4
2017-Sep-14 19:30N 53°34' E 009°43'4 8.2
2017-Sep-14 19:00N 53°33' E 009°50'3 6.7
2017-Sep-14 18:30N 53°33' E 009°55'3 6.2
2017-Sep-14 18:00N 53°30' E 009°57'0 0.8
2017-Sep-14 17:29N 53°29' E 009°57'0 0.0
2017-Sep-14 16:59N 53°29' E 009°57'0 0.0
2017-Sep-14 16:29N 53°29' E 009°57'0 0.0
2017-Sep-14 15:59N 53°29' E 009°57'0 0.0
2017-Sep-14 15:23N 53°29' E 009°57'0 0.0
2017-Sep-14 14:59N 53°29' E 009°57'0 0.0
2017-Sep-14 14:29N 53°29' E 009°57'0 0.0
2017-Sep-14 13:59N 53°29' E 009°57'0 0.0
2017-Sep-14 13:29N 53°29' E 009°57'0 0.0
2017-Sep-14 12:59N 53°29' E 009°57'0 0.0
2017-Sep-14 12:29N 53°29' E 009°57'0 0.0
2017-Sep-14 11:59N 53°29' E 009°57'0 0.0
2017-Sep-14 11:29N 53°29' E 009°57'0 0.0
2017-Sep-14 10:59N 53°29' E 009°57'0 0.0
2017-Sep-14 10:29N 53°29' E 009°57'0 0.0
2017-Sep-14 09:59N 53°29' E 009°57'0 0.0
2017-Sep-14 09:29N 53°29' E 009°57'0 0.0
2017-Sep-14 08:59N 53°29' E 009°57'0 0.0
2017-Sep-14 08:29N 53°29' E 009°57'0 0.0
2017-Sep-14 07:59N 53°29' E 009°57'0 0.0
2017-Sep-14 07:29N 53°29' E 009°57'0 0.0
2017-Sep-14 06:59N 53°29' E 009°57'0 0.0
2017-Sep-14 06:29N 53°29' E 009°57'0 0.0
2017-Sep-14 05:59N 53°29' E 009°57'0 0.0
2017-Sep-14 05:29N 53°29' E 009°57'0 0.0
2017-Sep-14 04:59N 53°29' E 009°57'0 0.0
2017-Sep-14 04:29N 53°29' E 009°57'0 0.0
2017-Sep-14 03:59N 53°29' E 009°57'0 0.0
2017-Sep-14 03:29N 53°29' E 009°57'0 0.0
2017-Sep-14 02:59N 53°29' E 009°57'0 0.0
2017-Sep-14 02:29N 53°29' E 009°57'0 0.0
2017-Sep-14 01:59N 53°29' E 009°57'0 0.0
2017-Sep-14 01:29N 53°29' E 009°57'0 0.0
2017-Sep-14 00:59N 53°29' E 009°57'0 0.0
2017-Sep-14 00:29N 53°29' E 009°57'0 0.0
2017-Sep-13 23:59N 53°29' E 009°57'0 0.0
2017-Sep-13 23:29N 53°29' E 009°57'0 0.0
2017-Sep-13 22:59N 53°29' E 009°57'0 0.0
2017-Sep-13 22:29N 53°29' E 009°57'0 0.0
2017-Sep-13 21:59N 53°29' E 009°57'0 0.0
2017-Sep-13 21:29N 53°29' E 009°57'0 0.0
2017-Sep-13 20:59N 53°29' E 009°57'0 0.0
2017-Sep-13 20:29N 53°29' E 009°57'0 0.0
2017-Sep-13 19:59N 53°29' E 009°57'0 0.0
2017-Sep-13 19:29N 53°29' E 009°57'0 0.0
2017-Sep-13 18:59N 53°29' E 009°57'0 0.0
2017-Sep-13 18:29N 53°29' E 009°57'0 0.0
2017-Sep-13 17:59N 53°29' E 009°57'0 0.0
2017-Sep-13 17:29N 53°29' E 009°57'0 0.0
2017-Sep-13 16:59N 53°29' E 009°57'0 0.0
2017-Sep-13 16:29N 53°29' E 009°57'0 0.0
2017-Sep-13 15:59N 53°29' E 009°57'0 0.0
2017-Sep-13 15:29N 53°29' E 009°57'0 0.0
2017-Sep-13 14:59N 53°29' E 009°57'0 0.0
2017-Sep-13 14:29N 53°29' E 009°57'0 0.0
2017-Sep-13 13:59N 53°29' E 009°57'0 0.0
2017-Sep-13 13:29N 53°29' E 009°57'0 0.0
2017-Sep-13 12:59N 53°29' E 009°57'0 0.0
2017-Sep-13 12:29N 53°29' E 009°57'0 0.0
2017-Sep-13 11:59N 53°29' E 009°57'0 0.0
2017-Sep-13 11:29N 53°29' E 009°57'0 0.0
2017-Sep-13 10:59N 53°29' E 009°57'0 0.0
2017-Sep-13 10:29N 53°29' E 009°57'0 0.0
2017-Sep-13 09:59N 53°29' E 009°57'0 0.0
2017-Sep-13 09:29N 53°29' E 009°57'0 0.0
2017-Sep-13 08:59N 53°29' E 009°57'0 0.0
2017-Sep-13 08:29N 53°29' E 009°57'0 0.0
2017-Sep-13 07:59N 53°29' E 009°57'0 0.0
2017-Sep-13 07:29N 53°29' E 009°57'0 0.0
2017-Sep-13 06:59N 53°29' E 009°57'0 0.0
2017-Sep-13 06:29N 53°29' E 009°57'0 0.0
2017-Sep-13 05:59N 53°29' E 009°57'0 0.0
2017-Sep-13 05:29N 53°29' E 009°57'0 0.0
2017-Sep-13 04:56N 53°29' E 009°57'0 0.0
2017-Sep-13 04:29N 53°29' E 009°57'0 0.0
2017-Sep-13 03:59N 53°29' E 009°57'0 0.0
2017-Sep-13 03:29N 53°29' E 009°57'0 0.0
2017-Sep-13 02:59N 53°29' E 009°57'0 0.0
2017-Sep-13 02:29N 53°29' E 009°57'0 0.0
2017-Sep-13 01:59N 53°29' E 009°57'0 0.0
2017-Sep-13 01:26N 53°29' E 009°57'0 0.0
2017-Sep-13 00:59N 53°29' E 009°57'0 0.0
2017-Sep-13 00:29N 53°29' E 009°57'0 0.0
2017-Sep-12 23:59N 53°29' E 009°57'0 0.0
2017-Sep-12 23:29N 53°29' E 009°57'0 0.0
2017-Sep-12 22:59N 53°29' E 009°57'0 0.0
2017-Sep-12 22:29N 53°29' E 009°57'0 0.0
2017-Sep-12 21:59N 53°29' E 009°57'0 0.0
2017-Sep-12 21:29N 53°29' E 009°57'0 0.0
2017-Sep-12 20:59N 53°29' E 009°57'0 0.1
2017-Sep-12 20:29N 53°29' E 009°57'0 0.1
2017-Sep-12 19:59N 53°29' E 009°57'0 0.0
2017-Sep-12 19:26N 53°29' E 009°57'0 0.0
2017-Sep-12 18:59N 53°29' E 009°57'0 0.0
2017-Sep-12 18:29N 53°29' E 009°57'0 0.0
2017-Sep-12 17:59N 53°29' E 009°57'0 0.0
2017-Sep-12 17:26N 53°29' E 009°57'0 0.0
2017-Sep-12 16:59N 53°29' E 009°57'0 0.0
2017-Sep-12 16:29N 53°29' E 009°57'0 0.0
2017-Sep-12 15:59N 53°29' E 009°57'0 0.0
2017-Sep-12 15:29N 53°29' E 009°57'0 0.0
2017-Sep-12 14:59N 53°29' E 009°57'0 0.0
2017-Sep-12 14:29N 53°29' E 009°57'0 0.0
2017-Sep-12 13:59N 53°29' E 009°57'0 0.0
2017-Sep-12 13:26N 53°29' E 009°57'0 0.0
2017-Sep-12 12:59N 53°29' E 009°57'0 0.0
2017-Sep-12 12:29N 53°29' E 009°57'0 0.0
2017-Sep-12 11:59N 53°29' E 009°57'0 0.0
2017-Sep-12 11:29N 53°29' E 009°57'0 0.0
2017-Sep-12 10:59N 53°29' E 009°57'0 0.0
2017-Sep-12 10:29N 53°29' E 009°57'0 0.0
2017-Sep-12 09:59N 53°29' E 009°57'0 0.0
2017-Sep-12 09:29N 53°29' E 009°57'0 0.0
2017-Sep-12 08:59N 53°29' E 009°57'0 0.0
2017-Sep-12 08:29N 53°29' E 009°57'0 0.0
2017-Sep-12 07:59N 53°29' E 009°57'0 0.0
2017-Sep-12 07:29N 53°29' E 009°57'0 0.0
2017-Sep-12 06:59N 53°29' E 009°57'0 0.0
2017-Sep-12 06:29N 53°29' E 009°57'0 0.0
2017-Sep-12 05:59N 53°29' E 009°57'0 0.0
2017-Sep-12 05:29N 53°29' E 009°57'0 0.0
2017-Sep-12 04:59N 53°29' E 009°57'0 0.0
2017-Sep-12 04:26N 53°29' E 009°57'0 0.0
2017-Sep-12 03:59N 53°29' E 009°57'0 0.0
2017-Sep-12 03:29N 53°29' E 009°57'0 0.0
2017-Sep-12 02:59N 53°29' E 009°57'0 0.0
2017-Sep-12 02:29N 53°29' E 009°57'0 0.0
2017-Sep-12 01:59N 53°29' E 009°57'0 0.0
2017-Sep-12 01:29N 53°29' E 009°57'0 0.0
2017-Sep-12 00:59N 53°29' E 009°57'0 0.0
2017-Sep-12 00:29N 53°29' E 009°57'0 0.0
2017-Sep-11 23:59N 53°29' E 009°57'0 0.0
2017-Sep-11 23:29N 53°29' E 009°57'0 0.0
2017-Sep-11 22:59N 53°29' E 009°57'0 0.0
2017-Sep-11 22:29N 53°29' E 009°57'0 0.0
2017-Sep-11 21:59N 53°29' E 009°57'0 0.0
2017-Sep-11 21:29N 53°29' E 009°57'0 0.0
2017-Sep-11 20:59N 53°29' E 009°57'0 0.1
2017-Sep-11 20:29N 53°29' E 009°57'0 0.0
2017-Sep-11 19:59N 53°29' E 009°57'0 0.0
2017-Sep-11 19:29N 53°29' E 009°57'0 0.0
2017-Sep-11 18:59N 53°29' E 009°57'0 0.0
2017-Sep-11 18:29N 53°29' E 009°57'0 0.0
2017-Sep-11 17:59N 53°29' E 009°57'0 0.0
2017-Sep-11 17:29N 53°29' E 009°57'0 0.0
2017-Sep-11 16:59N 53°29' E 009°57'0 0.0
2017-Sep-11 16:29N 53°29' E 009°57'0 0.0
2017-Sep-11 15:59N 53°29' E 009°57'0 0.0
2017-Sep-11 15:29N 53°29' E 009°57'0 0.0
2017-Sep-11 14:59N 53°29' E 009°57'0 0.0
2017-Sep-11 14:29N 53°29' E 009°57'0 0.0
2017-Sep-11 13:59N 53°29' E 009°57'0 0.0
2017-Sep-11 13:29N 53°29' E 009°57'0 0.0
2017-Sep-11 12:56N 53°29' E 009°57'0 0.0
2017-Sep-11 12:29N 53°29' E 009°57'0 0.0
2017-Sep-11 11:59N 53°29' E 009°57'0 0.0
2017-Sep-11 11:29N 53°29' E 009°57'0 0.0
2017-Sep-11 10:59N 53°29' E 009°57'0 0.0
2017-Sep-11 10:29N 53°29' E 009°57'0 0.0
2017-Sep-11 09:59N 53°29' E 009°57'0 0.0
2017-Sep-11 09:29N 53°29' E 009°57'0 0.0
2017-Sep-11 08:59N 53°29' E 009°57'0 0.0
2017-Sep-11 08:29N 53°29' E 009°57'0 0.0
2017-Sep-11 07:59N 53°29' E 009°57'0 0.0
2017-Sep-11 07:26N 53°29' E 009°57'0 0.0
2017-Sep-11 06:59N 53°29' E 009°57'1 1.4
2017-Sep-11 06:29N 53°30' E 009°57'1 2.2
2017-Sep-11 06:00N 53°31' E 009°56'0 0.4
2017-Sep-11 05:28N 53°31' E 009°56'0 0.0
2017-Sep-11 04:58N 53°31' E 009°56'0 0.0
2017-Sep-11 04:28N 53°31' E 009°56'0 0.0
2017-Sep-11 03:58N 53°31' E 009°56'0 0.0
2017-Sep-11 03:25N 53°31' E 009°56'0 0.0
2017-Sep-11 02:58N 53°31' E 009°56'0 0.0
2017-Sep-11 02:25N 53°31' E 009°56'0 0.0
2017-Sep-11 01:58N 53°31' E 009°56'0 0.0
2017-Sep-11 01:30N 53°31' E 009°56'0 0.0
2017-Sep-11 01:00N 53°31' E 009°56'0 0.0
2017-Sep-11 00:30N 53°31' E 009°56'0 0.0
2017-Sep-11 00:00N 53°31' E 009°56'0 0.0
2017-Sep-10 23:30N 53°31' E 009°56'0 0.0
2017-Sep-10 23:00N 53°31' E 009°56'0 0.0
2017-Sep-10 22:30N 53°31' E 009°56'0 0.0
2017-Sep-10 22:00N 53°31' E 009°56'0 0.0
2017-Sep-10 21:30N 53°31' E 009°56'0 0.0
2017-Sep-10 21:00N 53°31' E 009°56'0 0.0
2017-Sep-10 20:31N 53°31' E 009°56'0 0.0
2017-Sep-10 20:01N 53°31' E 009°56'0 0.0
2017-Sep-10 19:30N 53°31' E 009°56'0 0.0
2017-Sep-10 19:00N 53°31' E 009°56'0 0.0
2017-Sep-10 18:30N 53°31' E 009°56'0 0.0
2017-Sep-10 18:00N 53°31' E 009°56'0 0.0
2017-Sep-10 17:30N 53°31' E 009°56'0 0.0
2017-Sep-10 17:00N 53°31' E 009°56'0 0.0
2017-Sep-10 16:30N 53°31' E 009°56'0 0.0
2017-Sep-10 16:00N 53°31' E 009°56'0 0.0
2017-Sep-10 15:30N 53°31' E 009°56'0 0.0
2017-Sep-10 15:00N 53°31' E 009°56'0 0.0
2017-Sep-10 14:00N 53°31' E 009°56'0 0.0
2017-Sep-10 13:30N 53°31' E 009°56'0 0.0
2017-Sep-10 13:01N 53°31' E 009°56'0 0.0
2017-Sep-10 12:30N 53°31' E 009°56'0 0.0
2017-Sep-10 12:01N 53°31' E 009°56'0 0.0
2017-Sep-10 11:31N 53°31' E 009°56'0 0.0
2017-Sep-10 11:00N 53°31' E 009°56'0 0.0
2017-Sep-10 10:30N 53°31' E 009°56'0 0.0
2017-Sep-10 10:00N 53°31' E 009°56'0 0.0
2017-Sep-10 09:30N 53°31' E 009°56'0 0.0
2017-Sep-10 09:00N 53°31' E 009°56'0 0.0
2017-Sep-10 08:30N 53°31' E 009°56'0 0.0
2017-Sep-10 08:00N 53°31' E 009°56'0 0.0
2017-Sep-10 07:30N 53°31' E 009°56'0 0.0
2017-Sep-10 07:01N 53°31' E 009°56'0 0.0
2017-Sep-10 06:30N 53°31' E 009°56'0 0.0
2017-Sep-10 06:01N 53°31' E 009°56'0 0.0
2017-Sep-10 05:30N 53°31' E 009°56'0 0.0
2017-Sep-10 05:00N 53°31' E 009°56'0 0.0
2017-Sep-10 04:30N 53°31' E 009°56'2 3.2
2017-Sep-10 04:00N 53°32' E 009°55'4 7.8
2017-Sep-10 03:30N 53°33' E 009°49'510.4
2017-Sep-10 03:00N 53°34' E 009°40'611.7
2017-Sep-10 02:30N 53°38' E 009°32'510.9
2017-Sep-10 02:00N 53°43' E 009°29'612.0
2017-Sep-10 01:30N 53°47' E 009°23'612.1
2017-Sep-10 01:01N 53°52' E 009°16'611.8
2017-Sep-10 00:30N 53°53' E 009°06'612.6
2017-Sep-10 00:00N 53°51' E 008°56'612.4
2017-Sep-09 23:31N 53°51' E 008°46'713.0
2017-Sep-09 23:00N 53°56' E 008°39'713.3
2017-Sep-09 22:30N 53°58' E 008°29'713.6
2017-Sep-09 22:01N 53°60' E 008°18'612.6
2017-Sep-09 21:31N 53°59' E 008°07'3 6.1
2017-Sep-09 21:00N 54°02' E 008°05'2 4.1
2017-Sep-09 20:30N 54°03' E 008°09'0 0.7
2017-Sep-09 20:00N 54°03' E 008°09'0 0.0
2017-Sep-09 19:30N 54°03' E 008°09'0 0.0
2017-Sep-09 19:00N 54°03' E 008°09'0 0.0
2017-Sep-09 18:30N 54°03' E 008°09'0 0.0
2017-Sep-09 18:01N 54°03' E 008°09'0 0.0
2017-Sep-09 17:30N 54°03' E 008°09'0 0.0
2017-Sep-09 17:00N 54°03' E 008°09'0 0.0
2017-Sep-09 16:30N 54°03' E 008°09'0 0.0
2017-Sep-09 16:00N 54°03' E 008°09'0 0.0
2017-Sep-09 15:31N 54°03' E 008°09'0 0.2
2017-Sep-09 14:53N 54°03' E 008°09'0 0.3
2017-Sep-09 14:30N 54°03' E 008°09'0 0.2
2017-Sep-09 14:01N 54°03' E 008°09'0 0.0
2017-Sep-09 13:31N 54°03' E 008°09'0 0.0
2017-Sep-09 13:00N 54°03' E 008°09'0 0.0
2017-Sep-09 12:30N 54°03' E 008°09'0 0.0
2017-Sep-09 12:00N 54°03' E 008°09'0 0.0
2017-Sep-09 11:30N 54°03' E 008°09'0 0.0
2017-Sep-09 11:00N 54°03' E 008°09'0 0.1
2017-Sep-09 10:30N 54°03' E 008°09'2 3.0
2017-Sep-09 09:57N 54°01' E 008°09'4 8.7
2017-Sep-09 09:30N 53°59' E 008°04'611.9
2017-Sep-09 09:00N 53°60' E 007°54'5 9.4
2017-Sep-09 08:30N 54°02' E 007°47'2 3.8
2017-Sep-09 08:00N 54°04' E 007°46'0 0.2
2017-Sep-09 07:24N 54°04' E 007°46'0 0.1
2017-Sep-09 07:00N 54°04' E 007°46'0 0.1
2017-Sep-09 06:23N 54°04' E 007°46'0 0.0
2017-Sep-09 06:00N 54°04' E 007°46'0 0.0
2017-Sep-09 05:30N 54°04' E 007°46'0 0.0
2017-Sep-09 04:58N 54°04' E 007°46'0 0.0
2017-Sep-09 04:30N 54°04' E 007°46'0 0.0
2017-Sep-09 03:54N 54°04' E 007°46'0 0.2
2017-Sep-09 03:28N 54°04' E 007°46'0 0.1
2017-Sep-09 02:54N 54°04' E 007°46'0 0.1
2017-Sep-09 02:26N 54°04' E 007°46'0 0.1
2017-Sep-09 01:52N 54°04' E 007°46'0 0.1
2017-Sep-09 01:26N 54°04' E 007°46'0 0.1
2017-Sep-09 00:57N 54°04' E 007°46'0 0.1
2017-Sep-09 00:29N 54°04' E 007°46'0 0.0
2017-Sep-09 00:00N 54°04' E 007°46'0 0.0
2017-Sep-08 23:30N 54°04' E 007°46'0 0.0
2017-Sep-08 23:00N 54°04' E 007°46'0 0.0
2017-Sep-08 22:30N 54°04' E 007°46'0 0.0
2017-Sep-08 22:00N 54°04' E 007°46'0 0.0
2017-Sep-08 21:30N 54°04' E 007°46'0 0.0
2017-Sep-08 21:00N 54°04' E 007°46'0 0.0
2017-Sep-08 20:30N 54°04' E 007°46'0 0.1
2017-Sep-08 20:00N 54°04' E 007°46'0 0.2
2017-Sep-08 19:29N 54°04' E 007°46'0 0.4
2017-Sep-08 19:00N 54°04' E 007°46'0 0.1
2017-Sep-08 18:21N 54°04' E 007°46'0 0.0
2017-Sep-08 17:58N 54°04' E 007°46'0 0.0
2017-Sep-08 17:25N 54°04' E 007°46'0 0.0
2017-Sep-08 17:00N 54°04' E 007°46'0 0.1
2017-Sep-08 16:29N 54°04' E 007°46'0 0.2
2017-Sep-08 16:00N 54°04' E 007°46'0 0.2
2017-Sep-08 15:25N 54°04' E 007°46'0 0.1
2017-Sep-08 14:56N 54°04' E 007°46'0 0.0
2017-Sep-08 11:45N 54°04' E 007°46'0 0.0
2017-Sep-08 11:29N 54°04' E 007°46'0 0.0
2017-Sep-08 11:00N 54°04' E 007°46'0 0.0
2017-Sep-08 10:30N 54°04' E 007°46'0 0.1
2017-Sep-08 10:00N 54°04' E 007°46'0 0.5
2017-Sep-08 09:30N 54°04' E 007°46'202 9.0
2017-Sep-07 11:10N 57°25' E 008°26'211.3
2017-Sep-07 11:00N 57°26' E 008°29'611.3
2017-Sep-07 10:30N 57°28' E 008°38'611.2
2017-Sep-07 09:59N 57°31' E 008°48'511.2
2017-Sep-07 09:30N 57°34' E 008°57'611.2
2017-Sep-07 08:58N 57°36' E 009°06'511.1
2017-Sep-07 08:30N 57°39' E 009°15'611.1
2017-Sep-07 07:59N 57°42' E 009°25'511.3
2017-Sep-07 07:30N 57°44' E 009°34'611.2
2017-Sep-07 07:00N 57°46' E 009°43'611.4
2017-Sep-07 06:29N 57°46' E 009°54'510.5
2017-Sep-07 05:59N 57°47' E 010°04'510.2
2017-Sep-07 05:30N 57°47' E 010°13'510.6
2017-Sep-07 05:00N 57°48' E 010°24'511.0
2017-Sep-07 04:30N 57°48' E 010°34'610.5
2017-Sep-07 03:59N 57°48' E 010°44'510.2
2017-Sep-07 03:31N 57°45' E 010°51'611.0
2017-Sep-07 03:00N 57°41' E 010°59'611.3
2017-Sep-07 02:30N 57°38' E 011°07'611.4
2017-Sep-07 01:59N 57°34' E 011°16'611.4
2017-Sep-07 01:30N 57°31' E 011°24'611.3
2017-Sep-07 01:00N 57°25' E 011°28'611.7
2017-Sep-07 00:29N 57°20' E 011°31'611.9
2017-Sep-06 23:59N 57°14' E 011°35'612.0
2017-Sep-06 23:29N 57°08' E 011°38'  
Track history (hours):
 
Tides and Currents Weather Stations Pressure Air Temp Water Temp Dewpoint Dewpoint Depression Visibility Wind Speed Wind Dir Waves Ship Positions

Atlantic Hero

Last reported at 2017-Sep-16 23:14 UTC. Time now 2017-Sep-25 11:40 UTC.
Position N 49°41' W 004°54'.
Warning: this ship's position is 8 days out of date.

Length 225 m; draft 6.4 m.

Type: Cargo ship. MMSI: 311005500.

Date/timePositionNaut miles runAvg speedWind from/ knotsBaromVisibWave heightAir tempDewpointWater temp
2017-Sep-16 23:14N 49°41' W 004°54'313.2
2017-Sep-16 23:00N 49°42' W 004°50'813.3
2017-Sep-16 22:26N 49°43' W 004°38'813.5
2017-Sep-16 21:52N 49°45' W 004°26'613.6
2017-Sep-16 21:27N 49°46' W 004°18'613.9
2017-Sep-16 21:00N 49°48' W 004°09'713.9
2017-Sep-16 20:30N 49°50' W 003°58'713.9
2017-Sep-16 20:00N 49°51' W 003°48'713.7
2017-Sep-16 19:30N 49°53' W 003°37'713.3
2017-Sep-16 19:00N 49°54' W 003°27'612.9
2017-Sep-16 18:30N 49°56' W 003°18'612.6
2017-Sep-16 18:00N 49°57' W 003°08'612.0
2017-Sep-16 17:30N 49°59' W 002°59'611.7
2017-Sep-16 17:00N 50°00' W 002°50'611.5
2017-Sep-16 16:30N 50°02' W 002°42'9213.2
2017-Sep-16 09:30N 50°27' W 000°23'713.7
2017-Sep-16 09:00N 50°29' W 000°13'713.4
2017-Sep-16 08:30N 50°31' W 000°03'713.3
2017-Sep-16 08:00N 50°33' E 000°07'612.9
2017-Sep-16 07:30N 50°35' E 000°17'612.6
2017-Sep-16 07:00N 50°37' E 000°27'612.1
2017-Sep-16 06:30N 50°38' E 000°36'611.8
2017-Sep-16 06:00N 50°41' E 000°44'612.4
2017-Sep-16 05:30N 50°45' E 000°51'612.6
2017-Sep-16 05:00N 50°49' E 000°59'713.1
2017-Sep-16 04:30N 50°53' E 001°07'713.7
2017-Sep-16 04:00N 50°58' E 001°16'714.7
2017-Sep-16 03:30N 51°02' E 001°24'815.1
2017-Sep-16 03:00N 51°07' E 001°33'714.9
2017-Sep-16 02:30N 51°12' E 001°42'714.2
2017-Sep-16 02:01N 51°18' E 001°48'713.5
2017-Sep-16 01:30N 51°24' E 001°54'613.0
2017-Sep-16 01:01N 51°29' E 001°60'612.5
2017-Sep-16 00:31N 51°34' E 002°06'612.2
2017-Sep-16 00:00N 51°38' E 002°13'611.9
2017-Sep-15 23:30N 51°43' E 002°20'611.7
2017-Sep-15 22:59N 51°47' E 002°27'611.5
2017-Sep-15 22:29N 51°52' E 002°33'611.4
2017-Sep-15 22:00N 51°56' E 002°38'5912.4
2017-Sep-15 17:12N 52°43' E 003°38'313.5
2017-Sep-15 17:00N 52°45' E 003°41'713.6
2017-Sep-15 16:31N 52°50' E 003°48'713.6
2017-Sep-15 16:00N 52°55' E 003°55'713.2
2017-Sep-15 15:30N 52°60' E 004°03'612.9
2017-Sep-15 15:01N 53°04' E 004°12'712.5
2017-Sep-15 14:29N 53°08' E 004°20'612.1
2017-Sep-15 14:00N 53°13' E 004°25'1411.9
2017-Sep-15 12:49N 53°26' E 004°34'510.7
2017-Sep-15 12:22N 53°29' E 004°40'410.8
2017-Sep-15 12:00N 53°31' E 004°46'510.8
2017-Sep-15 11:30N 53°33' E 004°54'510.8
2017-Sep-15 11:00N 53°35' E 005°03'611.2
2017-Sep-15 10:30N 53°37' E 005°12'611.6
2017-Sep-15 10:00N 53°39' E 005°21'6712.4
2017-Sep-15 04:33N 53°57' E 007°11'011.8
2017-Sep-15 04:30N 53°57' E 007°11'611.5
2017-Sep-15 03:59N 53°59' E 007°21'711.3
2017-Sep-15 03:23N 54°00' E 007°33'411.0
2017-Sep-15 03:00N 54°01' E 007°39'510.5
2017-Sep-15 02:30N 54°01' E 007°48'510.7
2017-Sep-15 02:01N 54°01' E 007°57'810.4
2017-Sep-15 01:15N 54°01' E 008°11'2 9.3
2017-Sep-15 01:00N 54°00' E 008°15'2 4.6
2017-Sep-15 00:30N 54°00' E 008°19'612.1
2017-Sep-15 00:00N 53°59' E 008°28'613.0
2017-Sep-14 23:30N 53°57' E 008°39'713.3
2017-Sep-14 23:00N 53°51' E 008°45'714.6
2017-Sep-14 22:30N 53°51' E 008°58'713.5
2017-Sep-14 22:00N 53°53' E 009°09'611.9
2017-Sep-14 21:31N 53°51' E 009°18'713.2
2017-Sep-14 21:00N 53°46' E 009°24'612.0
2017-Sep-14 20:31N 53°41' E 009°30'611.1
2017-Sep-14 20:00N 53°36' E 009°35'510.4
2017-Sep-14 19:30N 53°34' E 009°43'4 8.2
2017-Sep-14 19:00N 53°33' E 009°50'3 6.7
2017-Sep-14 18:30N 53°33' E 009°55'3 6.2
2017-Sep-14 18:00N 53°30' E 009°57'0 0.8
2017-Sep-14 17:29N 53°29' E 009°57'0 0.0
2017-Sep-14 16:59N 53°29' E 009°57'0 0.0
2017-Sep-14 16:29N 53°29' E 009°57'0 0.0
2017-Sep-14 15:59N 53°29' E 009°57'0 0.0
2017-Sep-14 15:23N 53°29' E 009°57'0 0.0
2017-Sep-14 14:59N 53°29' E 009°57'0 0.0
2017-Sep-14 14:29N 53°29' E 009°57'0 0.0
2017-Sep-14 13:59N 53°29' E 009°57'0 0.0
2017-Sep-14 13:29N 53°29' E 009°57'0 0.0
2017-Sep-14 12:59N 53°29' E 009°57'0 0.0
2017-Sep-14 12:29N 53°29' E 009°57'0 0.0
2017-Sep-14 11:59N 53°29' E 009°57'0 0.0
2017-Sep-14 11:29N 53°29' E 009°57'0 0.0
2017-Sep-14 10:59N 53°29' E 009°57'0 0.0
2017-Sep-14 10:29N 53°29' E 009°57'0 0.0
2017-Sep-14 09:59N 53°29' E 009°57'0 0.0
2017-Sep-14 09:29N 53°29' E 009°57'0 0.0
2017-Sep-14 08:59N 53°29' E 009°57'0 0.0
2017-Sep-14 08:29N 53°29' E 009°57'0 0.0
2017-Sep-14 07:59N 53°29' E 009°57'0 0.0
2017-Sep-14 07:29N 53°29' E 009°57'0 0.0
2017-Sep-14 06:59N 53°29' E 009°57'0 0.0
2017-Sep-14 06:29N 53°29' E 009°57'0 0.0
2017-Sep-14 05:59N 53°29' E 009°57'0 0.0
2017-Sep-14 05:29N 53°29' E 009°57'0 0.0
2017-Sep-14 04:59N 53°29' E 009°57'0 0.0
2017-Sep-14 04:29N 53°29' E 009°57'0 0.0
2017-Sep-14 03:59N 53°29' E 009°57'0 0.0
2017-Sep-14 03:29N 53°29' E 009°57'0 0.0
2017-Sep-14 02:59N 53°29' E 009°57'0 0.0
2017-Sep-14 02:29N 53°29' E 009°57'0 0.0
2017-Sep-14 01:59N 53°29' E 009°57'0 0.0
2017-Sep-14 01:29N 53°29' E 009°57'0 0.0
2017-Sep-14 00:59N 53°29' E 009°57'0 0.0
2017-Sep-14 00:29N 53°29' E 009°57'0 0.0
2017-Sep-13 23:59N 53°29' E 009°57'0 0.0
2017-Sep-13 23:29N 53°29' E 009°57'0 0.0
2017-Sep-13 22:59N 53°29' E 009°57'0 0.0
2017-Sep-13 22:29N 53°29' E 009°57'0 0.0
2017-Sep-13 21:59N 53°29' E 009°57'0 0.0
2017-Sep-13 21:29N 53°29' E 009°57'0 0.0
2017-Sep-13 20:59N 53°29' E 009°57'0 0.0
2017-Sep-13 20:29N 53°29' E 009°57'0 0.0
2017-Sep-13 19:59N 53°29' E 009°57'0 0.0
2017-Sep-13 19:29N 53°29' E 009°57'0 0.0
2017-Sep-13 18:59N 53°29' E 009°57'0 0.0
2017-Sep-13 18:29N 53°29' E 009°57'0 0.0
2017-Sep-13 17:59N 53°29' E 009°57'0 0.0
2017-Sep-13 17:29N 53°29' E 009°57'0 0.0
2017-Sep-13 16:59N 53°29' E 009°57'0 0.0
2017-Sep-13 16:29N 53°29' E 009°57'0 0.0
2017-Sep-13 15:59N 53°29' E 009°57'0 0.0
2017-Sep-13 15:29N 53°29' E 009°57'0 0.0
2017-Sep-13 14:59N 53°29' E 009°57'0 0.0
2017-Sep-13 14:29N 53°29' E 009°57'0 0.0
2017-Sep-13 13:59N 53°29' E 009°57'0 0.0
2017-Sep-13 13:29N 53°29' E 009°57'0 0.0
2017-Sep-13 12:59N 53°29' E 009°57'0 0.0
2017-Sep-13 12:29N 53°29' E 009°57'0 0.0
2017-Sep-13 11:59N 53°29' E 009°57'0 0.0
2017-Sep-13 11:29N 53°29' E 009°57'0 0.0
2017-Sep-13 10:59N 53°29' E 009°57'0 0.0
2017-Sep-13 10:29N 53°29' E 009°57'0 0.0
2017-Sep-13 09:59N 53°29' E 009°57'0 0.0
2017-Sep-13 09:29N 53°29' E 009°57'0 0.0
2017-Sep-13 08:59N 53°29' E 009°57'0 0.0
2017-Sep-13 08:29N 53°29' E 009°57'0 0.0
2017-Sep-13 07:59N 53°29' E 009°57'0 0.0
2017-Sep-13 07:29N 53°29' E 009°57'0 0.0
2017-Sep-13 06:59N 53°29' E 009°57'0 0.0
2017-Sep-13 06:29N 53°29' E 009°57'0 0.0
2017-Sep-13 05:59N 53°29' E 009°57'0 0.0
2017-Sep-13 05:29N 53°29' E 009°57'0 0.0
2017-Sep-13 04:56N 53°29' E 009°57'0 0.0
2017-Sep-13 04:29N 53°29' E 009°57'0 0.0
2017-Sep-13 03:59N 53°29' E 009°57'0 0.0
2017-Sep-13 03:29N 53°29' E 009°57'0 0.0
2017-Sep-13 02:59N 53°29' E 009°57'0 0.0
2017-Sep-13 02:29N 53°29' E 009°57'0 0.0
2017-Sep-13 01:59N 53°29' E 009°57'0 0.0
2017-Sep-13 01:26N 53°29' E 009°57'0 0.0
2017-Sep-13 00:59N 53°29' E 009°57'0 0.0
2017-Sep-13 00:29N 53°29' E 009°57'0 0.0
2017-Sep-12 23:59N 53°29' E 009°57'0 0.0
2017-Sep-12 23:29N 53°29' E 009°57'0 0.0
2017-Sep-12 22:59N 53°29' E 009°57'0 0.0
2017-Sep-12 22:29N 53°29' E 009°57'0 0.0
2017-Sep-12 21:59N 53°29' E 009°57'0 0.0
2017-Sep-12 21:29N 53°29' E 009°57'0 0.0
2017-Sep-12 20:59N 53°29' E 009°57'0 0.1
2017-Sep-12 20:29N 53°29' E 009°57'0 0.1
2017-Sep-12 19:59N 53°29' E 009°57'0 0.0
2017-Sep-12 19:26N 53°29' E 009°57'0 0.0
2017-Sep-12 18:59N 53°29' E 009°57'0 0.0
2017-Sep-12 18:29N 53°29' E 009°57'0 0.0
2017-Sep-12 17:59N 53°29' E 009°57'0 0.0
2017-Sep-12 17:26N 53°29' E 009°57'0 0.0
2017-Sep-12 16:59N 53°29' E 009°57'0 0.0
2017-Sep-12 16:29N 53°29' E 009°57'0 0.0
2017-Sep-12 15:59N 53°29' E 009°57'0 0.0
2017-Sep-12 15:29N 53°29' E 009°57'0 0.0
2017-Sep-12 14:59N 53°29' E 009°57'0 0.0
2017-Sep-12 14:29N 53°29' E 009°57'0 0.0
2017-Sep-12 13:59N 53°29' E 009°57'0 0.0
2017-Sep-12 13:26N 53°29' E 009°57'0 0.0
2017-Sep-12 12:59N 53°29' E 009°57'0 0.0
2017-Sep-12 12:29N 53°29' E 009°57'0 0.0
2017-Sep-12 11:59N 53°29' E 009°57'0 0.0
2017-Sep-12 11:29N 53°29' E 009°57'0 0.0
2017-Sep-12 10:59N 53°29' E 009°57'0 0.0
2017-Sep-12 10:29N 53°29' E 009°57'0 0.0
2017-Sep-12 09:59N 53°29' E 009°57'0 0.0
2017-Sep-12 09:29N 53°29' E 009°57'0 0.0
2017-Sep-12 08:59N 53°29' E 009°57'0 0.0
2017-Sep-12 08:29N 53°29' E 009°57'0 0.0
2017-Sep-12 07:59N 53°29' E 009°57'0 0.0
2017-Sep-12 07:29N 53°29' E 009°57'0 0.0
2017-Sep-12 06:59N 53°29' E 009°57'0 0.0
2017-Sep-12 06:29N 53°29' E 009°57'0 0.0
2017-Sep-12 05:59N 53°29' E 009°57'0 0.0
2017-Sep-12 05:29N 53°29' E 009°57'0 0.0
2017-Sep-12 04:59N 53°29' E 009°57'0 0.0
2017-Sep-12 04:26N 53°29' E 009°57'0 0.0
2017-Sep-12 03:59N 53°29' E 009°57'0 0.0
2017-Sep-12 03:29N 53°29' E 009°57'0 0.0
2017-Sep-12 02:59N 53°29' E 009°57'0 0.0
2017-Sep-12 02:29N 53°29' E 009°57'0 0.0
2017-Sep-12 01:59N 53°29' E 009°57'0 0.0
2017-Sep-12 01:29N 53°29' E 009°57'0 0.0
2017-Sep-12 00:59N 53°29' E 009°57'0 0.0
2017-Sep-12 00:29N 53°29' E 009°57'0 0.0
2017-Sep-11 23:59N 53°29' E 009°57'0 0.0
2017-Sep-11 23:29N 53°29' E 009°57'0 0.0
2017-Sep-11 22:59N 53°29' E 009°57'0 0.0
2017-Sep-11 22:29N 53°29' E 009°57'0 0.0
2017-Sep-11 21:59N 53°29' E 009°57'0 0.0
2017-Sep-11 21:29N 53°29' E 009°57'0 0.0
2017-Sep-11 20:59N 53°29' E 009°57'0 0.1
2017-Sep-11 20:29N 53°29' E 009°57'0 0.0
2017-Sep-11 19:59N 53°29' E 009°57'0 0.0
2017-Sep-11 19:29N 53°29' E 009°57'0 0.0
2017-Sep-11 18:59N 53°29' E 009°57'0 0.0
2017-Sep-11 18:29N 53°29' E 009°57'0 0.0
2017-Sep-11 17:59N 53°29' E 009°57'0 0.0
2017-Sep-11 17:29N 53°29' E 009°57'0 0.0
2017-Sep-11 16:59N 53°29' E 009°57'0 0.0
2017-Sep-11 16:29N 53°29' E 009°57'0 0.0
2017-Sep-11 15:59N 53°29' E 009°57'0 0.0
2017-Sep-11 15:29N 53°29' E 009°57'0 0.0
2017-Sep-11 14:59N 53°29' E 009°57'0 0.0
2017-Sep-11 14:29N 53°29' E 009°57'0 0.0
2017-Sep-11 13:59N 53°29' E 009°57'0 0.0
2017-Sep-11 13:29N 53°29' E 009°57'0 0.0
2017-Sep-11 12:56N 53°29' E 009°57'0 0.0
2017-Sep-11 12:29N 53°29' E 009°57'0 0.0
2017-Sep-11 11:59N 53°29' E 009°57'0 0.0
2017-Sep-11 11:29N 53°29' E 009°57'0 0.0
2017-Sep-11 10:59N 53°29' E 009°57'0 0.0
2017-Sep-11 10:29N 53°29' E 009°57'0 0.0
2017-Sep-11 09:59N 53°29' E 009°57'0 0.0
2017-Sep-11 09:29N 53°29' E 009°57'0 0.0
2017-Sep-11 08:59N 53°29' E 009°57'0 0.0
2017-Sep-11 08:29N 53°29' E 009°57'0 0.0
2017-Sep-11 07:59N 53°29' E 009°57'0 0.0
2017-Sep-11 07:26N 53°29' E 009°57'0 0.0
2017-Sep-11 06:59N 53°29' E 009°57'1 1.4
2017-Sep-11 06:29N 53°30' E 009°57'1 2.2
2017-Sep-11 06:00N 53°31' E 009°56'0 0.4
2017-Sep-11 05:28N 53°31' E 009°56'0 0.0
2017-Sep-11 04:58N 53°31' E 009°56'0 0.0
2017-Sep-11 04:28N 53°31' E 009°56'0 0.0
2017-Sep-11 03:58N 53°31' E 009°56'0 0.0
2017-Sep-11 03:25N 53°31' E 009°56'0 0.0
2017-Sep-11 02:58N 53°31' E 009°56'0 0.0
2017-Sep-11 02:25N 53°31' E 009°56'0 0.0
2017-Sep-11 01:58N 53°31' E 009°56'0 0.0
2017-Sep-11 01:30N 53°31' E 009°56'0 0.0
2017-Sep-11 01:00N 53°31' E 009°56'0 0.0
2017-Sep-11 00:30N 53°31' E 009°56'0 0.0
2017-Sep-11 00:00N 53°31' E 009°56'0 0.0
2017-Sep-10 23:30N 53°31' E 009°56'0 0.0
2017-Sep-10 23:00N 53°31' E 009°56'0 0.0
2017-Sep-10 22:30N 53°31' E 009°56'0 0.0
2017-Sep-10 22:00N 53°31' E 009°56'0 0.0
2017-Sep-10 21:30N 53°31' E 009°56'0 0.0
2017-Sep-10 21:00N 53°31' E 009°56'0 0.0
2017-Sep-10 20:31N 53°31' E 009°56'0 0.0
2017-Sep-10 20:01N 53°31' E 009°56'0 0.0
2017-Sep-10 19:30N 53°31' E 009°56'0 0.0
2017-Sep-10 19:00N 53°31' E 009°56'0 0.0
2017-Sep-10 18:30N 53°31' E 009°56'0 0.0
2017-Sep-10 18:00N 53°31' E 009°56'0 0.0
2017-Sep-10 17:30N 53°31' E 009°56'0 0.0
2017-Sep-10 17:00N 53°31' E 009°56'0 0.0
2017-Sep-10 16:30N 53°31' E 009°56'0 0.0
2017-Sep-10 16:00N 53°31' E 009°56'0 0.0
2017-Sep-10 15:30N 53°31' E 009°56'0 0.0
2017-Sep-10 15:00N 53°31' E 009°56'0 0.0
2017-Sep-10 14:00N 53°31' E 009°56'0 0.0
2017-Sep-10 13:30N 53°31' E 009°56'0 0.0
2017-Sep-10 13:01N 53°31' E 009°56'0 0.0
2017-Sep-10 12:30N 53°31' E 009°56'0 0.0
2017-Sep-10 12:01N 53°31' E 009°56'0 0.0
2017-Sep-10 11:31N 53°31' E 009°56'0 0.0
2017-Sep-10 11:00N 53°31' E 009°56'0 0.0
2017-Sep-10 10:30N 53°31' E 009°56'0 0.0
2017-Sep-10 10:00N 53°31' E 009°56'0 0.0
2017-Sep-10 09:30N 53°31' E 009°56'0 0.0
2017-Sep-10 09:00N 53°31' E 009°56'0 0.0
2017-Sep-10 08:30N 53°31' E 009°56'0 0.0
2017-Sep-10 08:00N 53°31' E 009°56'0 0.0
2017-Sep-10 07:30N 53°31' E 009°56'0 0.0
2017-Sep-10 07:01N 53°31' E 009°56'0 0.0
2017-Sep-10 06:30N 53°31' E 009°56'0 0.0
2017-Sep-10 06:01N 53°31' E 009°56'0 0.0
2017-Sep-10 05:30N 53°31' E 009°56'0 0.0
2017-Sep-10 05:00N 53°31' E 009°56'0 0.0
2017-Sep-10 04:30N 53°31' E 009°56'2 3.2
2017-Sep-10 04:00N 53°32' E 009°55'4 7.8
2017-Sep-10 03:30N 53°33' E 009°49'510.4
2017-Sep-10 03:00N 53°34' E 009°40'611.7
2017-Sep-10 02:30N 53°38' E 009°32'510.9
2017-Sep-10 02:00N 53°43' E 009°29'612.0
2017-Sep-10 01:30N 53°47' E 009°23'612.1
2017-Sep-10 01:01N 53°52' E 009°16'611.8
2017-Sep-10 00:30N 53°53' E 009°06'612.6
2017-Sep-10 00:00N 53°51' E 008°56'612.4
2017-Sep-09 23:31N 53°51' E 008°46'713.0
2017-Sep-09 23:00N 53°56' E 008°39'713.3
2017-Sep-09 22:30N 53°58' E 008°29'713.6
2017-Sep-09 22:01N 53°60' E 008°18'612.6
2017-Sep-09 21:31N 53°59' E 008°07'3 6.1
2017-Sep-09 21:00N 54°02' E 008°05'2 4.1
2017-Sep-09 20:30N 54°03' E 008°09'0 0.7
2017-Sep-09 20:00N 54°03' E 008°09'0 0.0
2017-Sep-09 19:30N 54°03' E 008°09'0 0.0
2017-Sep-09 19:00N 54°03' E 008°09'0 0.0
2017-Sep-09 18:30N 54°03' E 008°09'0 0.0
2017-Sep-09 18:01N 54°03' E 008°09'0 0.0
2017-Sep-09 17:30N 54°03' E 008°09'0 0.0
2017-Sep-09 17:00N 54°03' E 008°09'0 0.0
2017-Sep-09 16:30N 54°03' E 008°09'0 0.0
2017-Sep-09 16:00N 54°03' E 008°09'0 0.0
2017-Sep-09 15:31N 54°03' E 008°09'0 0.2
2017-Sep-09 14:53N 54°03' E 008°09'0 0.3
2017-Sep-09 14:30N 54°03' E 008°09'0 0.2
2017-Sep-09 14:01N 54°03' E 008°09'0 0.0
2017-Sep-09 13:31N 54°03' E 008°09'0 0.0
2017-Sep-09 13:00N 54°03' E 008°09'0 0.0
2017-Sep-09 12:30N 54°03' E 008°09'0 0.0
2017-Sep-09 12:00N 54°03' E 008°09'0 0.0
2017-Sep-09 11:30N 54°03' E 008°09'0 0.0
2017-Sep-09 11:00N 54°03' E 008°09'0 0.1
2017-Sep-09 10:30N 54°03' E 008°09'2 3.0
2017-Sep-09 09:57N 54°01' E 008°09'4 8.7
2017-Sep-09 09:30N 53°59' E 008°04'611.9
2017-Sep-09 09:00N 53°60' E 007°54'5 9.4
2017-Sep-09 08:30N 54°02' E 007°47'2 3.8
2017-Sep-09 08:00N 54°04' E 007°46'0 0.2
2017-Sep-09 07:24N 54°04' E 007°46'0 0.1
2017-Sep-09 07:00N 54°04' E 007°46'0 0.1
2017-Sep-09 06:23N 54°04' E 007°46'0 0.0
2017-Sep-09 06:00N 54°04' E 007°46'0 0.0
2017-Sep-09 05:30N 54°04' E 007°46'0 0.0
2017-Sep-09 04:58N 54°04' E 007°46'0 0.0
2017-Sep-09 04:30N 54°04' E 007°46'0 0.0
2017-Sep-09 03:54N 54°04' E 007°46'0 0.2
2017-Sep-09 03:28N 54°04' E 007°46'0 0.1
2017-Sep-09 02:54N 54°04' E 007°46'0 0.1
2017-Sep-09 02:26N 54°04' E 007°46'0 0.1
2017-Sep-09 01:52N 54°04' E 007°46'0 0.1
2017-Sep-09 01:26N 54°04' E 007°46'0 0.1
2017-Sep-09 00:57N 54°04' E 007°46'0 0.1
2017-Sep-09 00:29N 54°04' E 007°46'0 0.0
2017-Sep-09 00:00N 54°04' E 007°46'0 0.0
2017-Sep-08 23:30N 54°04' E 007°46'0 0.0
2017-Sep-08 23:00N 54°04' E 007°46'0 0.0
2017-Sep-08 22:30N 54°04' E 007°46'0 0.0
2017-Sep-08 22:00N 54°04' E 007°46'0 0.0
2017-Sep-08 21:30N 54°04' E 007°46'0 0.0
2017-Sep-08 21:00N 54°04' E 007°46'0 0.0
2017-Sep-08 20:30N 54°04' E 007°46'0 0.1
2017-Sep-08 20:00N 54°04' E 007°46'0 0.2
2017-Sep-08 19:29N 54°04' E 007°46'0 0.4
2017-Sep-08 19:00N 54°04' E 007°46'0 0.1
2017-Sep-08 18:21N 54°04' E 007°46'0 0.0
2017-Sep-08 17:58N 54°04' E 007°46'0 0.0
2017-Sep-08 17:25N 54°04' E 007°46'0 0.0
2017-Sep-08 17:00N 54°04' E 007°46'0 0.1
2017-Sep-08 16:29N 54°04' E 007°46'0 0.2
2017-Sep-08 16:00N 54°04' E 007°46'0 0.2
2017-Sep-08 15:25N 54°04' E 007°46'0 0.1
2017-Sep-08 14:56N 54°04' E 007°46'0 0.0
2017-Sep-08 11:45N 54°04' E 007°46'0 0.0
2017-Sep-08 11:29N 54°04' E 007°46'0 0.0
2017-Sep-08 11:00N 54°04' E 007°46'0 0.0
2017-Sep-08 10:30N 54°04' E 007°46'0 0.1
2017-Sep-08 10:00N 54°04' E 007°46'0 0.5
2017-Sep-08 09:30N 54°04' E 007°46'202 9.0
2017-Sep-07 11:10N 57°25' E 008°26'211.3
2017-Sep-07 11:00N 57°26' E 008°29'611.3
2017-Sep-07 10:30N 57°28' E 008°38'611.2
2017-Sep-07 09:59N 57°31' E 008°48'511.2
2017-Sep-07 09:30N 57°34' E 008°57'611.2
2017-Sep-07 08:58N 57°36' E 009°06'511.1
2017-Sep-07 08:30N 57°39' E 009°15'611.1
2017-Sep-07 07:59N 57°42' E 009°25'511.3
2017-Sep-07 07:30N 57°44' E 009°34'611.2
2017-Sep-07 07:00N 57°46' E 009°43'611.4
2017-Sep-07 06:29N 57°46' E 009°54'510.5
2017-Sep-07 05:59N 57°47' E 010°04'510.2
2017-Sep-07 05:30N 57°47' E 010°13'510.6
2017-Sep-07 05:00N 57°48' E 010°24'511.0
2017-Sep-07 04:30N 57°48' E 010°34'610.5
2017-Sep-07 03:59N 57°48' E 010°44'510.2
2017-Sep-07 03:31N 57°45' E 010°51'611.0
2017-Sep-07 03:00N 57°41' E 010°59'611.3
2017-Sep-07 02:30N 57°38' E 011°07'611.4
2017-Sep-07 01:59N 57°34' E 011°16'611.4
2017-Sep-07 01:30N 57°31' E 011°24'611.3
2017-Sep-07 01:00N 57°25' E 011°28'611.7
2017-Sep-07 00:29N 57°20' E 011°31'611.9
2017-Sep-06 23:59N 57°14' E 011°35'612.0
2017-Sep-06 23:29N 57°08' E 011°38'  

Dump ship's entire track history